Volk Field
KVOK : rendu visible

Aérodrome :











RETROUVEZ-NOUS SUR...

 
LOGIN :

S'inscrire | Disclaimer

   EN    FR    IT 

 









Légende :    VFR   VFR Marginal   IFR   IFR Intensif   IFR Très Intensif
Visi : 
Plafond : 
>= 8 km
>= 3000ft
5 à 8 km
1000 à 3000 ft
1500m à 5 km
500 à 1000 ft
800 à 1500m
200 à 500 ft
< 800m
< 200 ft
Symboles :   Orages  Brouillard  Fortes neiges  Fortes précipitations  Vent > 20 kt






- Altitude de l'aérodrome : 912 ft


KVOK - Volk Field

DERNIER METAR :
  • 221956Z AUTO 21006KT 10SM CLR 07/M03 A3000 RMK AO2 SLP171 T00701027

METARs EXPIRÉS :
  • 221856Z AUTO 21005KT 10SM CLR 06/M04 A3003 RMK AO2 SLP182 T00641038
  • 221756Z AUTO 22005KT 10SM CLR 05/M03 A3006 RMK AO2 SLP192 T00491034 10049 21100 57006

TAF TAF KVOK
Valide du 21 à 17h jusqu'au 22 à 23h UTC


211700Z 2117/2223 23015G25KT 9999 SKC QNH3025INS
TEMPO 2117/2123 23020G35KT 510003
BECMG 2123/2124 23009KT 9999 SKC WS015/25044KT QNH3016INS
BECMG 2204/2205 22009KT 9999 SKC QNH3011INS TX02/2121Z TNM07/2213Z LAST NO AMDS AFT 2119 NEXT 2409



MET'MAP, la Météo Aéronautique d'un coup d'oeil ! - Copyright ORBIFLY Décembre 2007 - Disclaimer

ORBIFLY MET'MAP TEAM :

Programmation & Développement : Alexandra Zaïnal
Sur une idée originale de : Baudouin d'Aumeries
Assistance à la programmation : Marc-Olivier Méhu
Soutien technique & logistique : Manuel Goepfert

Contact : metmap@orbifly.com




SOURCES & CREDITS :

   NOAA       Earth
Advisory